TAF KSAT
KSAT 090520Z 0906/1012 16008KT P6SM BKN006 FM091000 18004KT 3SM BR OVC004 TEMPO 0912/0916 1/2SM FG OVC002 FM091700 21006KT P6SM BKN015 FM092000 21008KT P6SM SCT250=
METAR KSAT
SPECI KSAT 091120Z 18004KT 1/8SM R13R/4000V4500FT -RA FG VV002 17/17 A2990 RMK AO2 TWR VIS 1/4 P0000 T01670167
SPECI KSAT 091104Z 20006KT 1/4SM R13R/3500V4500FT -RA FG VV002 17/17 A2990 RMK AO2 P0000 T01670167 ?
KSAT 091051Z 19005KT 1/2SM R13R/4500V6000FT -RA BR VV002 17/16 A2991 RMK AO2 SFC VIS 3/4 RAB39 SLP114 P0000 T01670161 ?
SPECI KSAT 091017Z 21003KT 1/2SM R13R/P6000FT BR OVC004 17/16 A2993 RMK AO2 SFC VIS 1 1/2 T01720161 ?
KSAT 090951Z 20005KT 1SM R13R/P6000FT BR OVC004 17/16 A2993 RMK AO2 SFC VIS 3 SLP119 T01720161 ?
WC KSAT
WS KSAT
WV KSAT